Aztec, NM (87410)

2:47 PM MDT on September 03, 2015 (GMT -0600)
Aztec, NM 87410 | | Change Station
CLOSE
Current Station
Personal Weather Station
Location: Aztec, NM
Elevation: 5682 ft
Nearby Weather Stations

Elev 5682 ft 36.82 °N, 107.99 °W | Updated 11 minutes ago

Clear
Clear
77.6 °F
Feels Like 78 °F
N
2.7
Wind Variable Wind from South

Today
High -- | Low -- °F
--% Chance of Precip.
Yesterday
High -- | Low -- °F
Precip. -- in
6:44 AM 7:37 PM
Waning Gibbous, 67% visible
Pressure 29.89 in
Visibility 10.0 miles
Clouds Clear
Heat Index 78 °F
Dew Point 48 °F
Humidity 35%
Rainfall 0.00 in
Snow Depth Not available.
UV 10 out of 12
Pollen 6.00 out of 12
Air Quality Not available.
Flu Activity Not available.
METAR KFMN 031953Z 23007G15KT 10SM CLR 28/06 A3008 RMK AO2 SLP121 T02830061
Pressure 29.89 in
Visibility 10.0 miles
Clouds Clear
Heat Index 78 °F
Dew Point 48 °F
Humidity 35%
Rainfall 0.00 in
Snow Depth Not available.
UV 10 out of 12
Pollen 6.00 out of 12
Air Quality Not available.
Flu Activity Not available.
METAR KFMN 031953Z 23007G15KT 10SM CLR 28/06 A3008 RMK AO2 SLP121 T02830061

10-Day Weather Forecast

×

Almanac

Astronomy

Sep. 03, 2015 Rise Set
Actual Time
Civil Twilight
Nautical Twilight
Astronomical Twilight
Moon
Length of Visible Light
Length of Day
Tomorrow will be .
, % of the Moon is Illuminated

Today's Extremes

State Highs State Lows

Community

WunderPhotos

Upload Photos

1,852,036 photos uploaded!

WunderBlogs® & News

Nearby

Air Quality

  Air Quality AQ Index Pollutant
Not available.

Snow Depth

Station Depth Elevation

Earthquake Activity

City Distance Mag. Time & Date
Minimum magnitude displayed is 2.5.

Coastal Water Temperatures

Place Temperature

Stations

Nearby Weather Stations

Station Location Temp. Windchill Dew Point Humidity Wind Precip. Elev Updated Type